sensor_id;sensor_type;location;lat;lon;timestamp;P1;durP1;ratioP1;P2;durP2;ratioP2
3781;SDS011;6881;49.962;7.718;2023-03-30T00:01:04;3.00;;;2.07;;
3781;SDS011;6881;49.962;7.718;2023-03-30T00:03:34;3.40;;;2.43;;
3781;SDS011;6881;49.962;7.718;2023-03-30T00:06:03;6.37;;;2.60;;
3781;SDS011;6881;49.962;7.718;2023-03-30T00:08:29;5.70;;;2.47;;
3781;SDS011;6881;49.962;7.718;2023-03-30T00:13:33;7.90;;;2.60;;
3781;SDS011;6881;49.962;7.718;2023-03-30T00:15:59;5.57;;;2.50;;
3781;SDS011;6881;49.962;7.718;2023-03-30T00:18:25;4.40;;;2.53;;
3781;SDS011;6881;49.962;7.718;2023-03-30T00:20:51;3.60;;;2.00;;
3781;SDS011;6881;49.962;7.718;2023-03-30T00:23:17;5.27;;;2.17;;
3781;SDS011;6881;49.962;7.718;2023-03-30T00:25:43;3.47;;;2.20;;
3781;SDS011;6881;49.962;7.718;2023-03-30T00:28:09;7.60;;;4.03;;
3781;SDS011;6881;49.962;7.718;2023-03-30T00:30:34;3.40;;;2.87;;
3781;SDS011;6881;49.962;7.718;2023-03-30T00:33:01;3.10;;;2.20;;
3781;SDS011;6881;49.962;7.718;2023-03-30T00:35:27;5.17;;;2.70;;
3781;SDS011;6881;49.962;7.718;2023-03-30T00:37:54;4.07;;;2.33;;
3781;SDS011;6881;49.962;7.718;2023-03-30T00:40:20;3.70;;;2.03;;
3781;SDS011;6881;49.962;7.718;2023-03-30T00:42:46;3.70;;;3.13;;
3781;SDS011;6881;49.962;7.718;2023-03-30T00:45:16;5.30;;;3.10;;
3781;SDS011;6881;49.962;7.718;2023-03-30T00:50:21;6.10;;;2.33;;
3781;SDS011;6881;49.962;7.718;2023-03-30T00:52:49;5.50;;;2.43;;
3781;SDS011;6881;49.962;7.718;2023-03-30T00:55:19;3.50;;;2.00;;
3781;SDS011;6881;49.962;7.718;2023-03-30T00:57:46;2.87;;;1.70;;
3781;SDS011;6881;49.962;7.718;2023-03-30T01:00:12;7.80;;;2.40;;
3781;SDS011;6881;49.962;7.718;2023-03-30T01:02:49;5.63;;;2.00;;
3781;SDS011;6881;49.962;7.718;2023-03-30T01:05:19;7.50;;;2.63;;
3781;SDS011;6881;49.962;7.718;2023-03-30T01:07:45;6.47;;;2.53;;
3781;SDS011;6881;49.962;7.718;2023-03-30T01:10:13;4.70;;;2.37;;
3781;SDS011;6881;49.962;7.718;2023-03-30T01:12:39;5.20;;;2.03;;
3781;SDS011;6881;49.962;7.718;2023-03-30T01:15:05;3.50;;;2.37;;
3781;SDS011;6881;49.962;7.718;2023-03-30T01:28:37;2.73;;;2.20;;
3781;SDS011;6881;49.962;7.718;2023-03-30T01:34:17;6.13;;;2.40;;
3781;SDS011;6881;49.962;7.718;2023-03-30T01:44:59;7.23;;;2.73;;
3781;SDS011;6881;49.962;7.718;2023-03-30T01:47:45;2.50;;;1.63;;
3781;SDS011;6881;49.962;7.718;2023-03-30T01:50:22;7.27;;;2.27;;
3781;SDS011;6881;49.962;7.718;2023-03-30T01:55:38;3.53;;;2.20;;
3781;SDS011;6881;49.962;7.718;2023-03-30T02:00:32;6.23;;;2.90;;
3781;SDS011;6881;49.962;7.718;2023-03-30T02:03:02;6.60;;;2.77;;
3781;SDS011;6881;49.962;7.718;2023-03-30T02:05:29;8.00;;;2.67;;
3781;SDS011;6881;49.962;7.718;2023-03-30T02:08:00;5.73;;;2.87;;
3781;SDS011;6881;49.962;7.718;2023-03-30T02:10:31;8.33;;;2.60;;
3781;SDS011;6881;49.962;7.718;2023-03-30T02:12:57;6.47;;;2.70;;
3781;SDS011;6881;49.962;7.718;2023-03-30T02:15:24;6.13;;;2.60;;
3781;SDS011;6881;49.962;7.718;2023-03-30T02:17:52;3.43;;;2.13;;
3781;SDS011;6881;49.962;7.718;2023-03-30T02:20:17;3.53;;;1.87;;
3781;SDS011;6881;49.962;7.718;2023-03-30T02:22:43;4.03;;;2.63;;
3781;SDS011;6881;49.962;7.718;2023-03-30T02:25:09;7.57;;;2.97;;
3781;SDS011;6881;49.962;7.718;2023-03-30T02:27:34;10.87;;;2.20;;
3781;SDS011;6881;49.962;7.718;2023-03-30T02:30:02;6.20;;;3.00;;
3781;SDS011;6881;49.962;7.718;2023-03-30T02:32:31;6.37;;;2.20;;
3781;SDS011;6881;49.962;7.718;2023-03-30T02:52:03;10.90;;;2.40;;
3781;SDS011;6881;49.962;7.718;2023-03-30T02:54:37;3.60;;;2.20;;
3781;SDS011;6881;49.962;7.718;2023-03-30T02:57:13;7.37;;;2.50;;
3781;SDS011;6881;49.962;7.718;2023-03-30T02:59:46;7.80;;;2.57;;
3781;SDS011;6881;49.962;7.718;2023-03-30T03:02:16;4.10;;;2.07;;
3781;SDS011;6881;49.962;7.718;2023-03-30T03:05:02;4.73;;;2.40;;
3781;SDS011;6881;49.962;7.718;2023-03-30T03:07:28;6.30;;;2.27;;
3781;SDS011;6881;49.962;7.718;2023-03-30T03:09:56;5.03;;;2.67;;
3781;SDS011;6881;49.962;7.718;2023-03-30T03:12:21;8.53;;;3.27;;
3781;SDS011;6881;49.962;7.718;2023-03-30T03:14:47;3.70;;;2.00;;
3781;SDS011;6881;49.962;7.718;2023-03-30T03:17:12;6.43;;;3.67;;
3781;SDS011;6881;49.962;7.718;2023-03-30T03:19:37;4.60;;;2.30;;
3781;SDS011;6881;49.962;7.718;2023-03-30T03:22:03;4.40;;;2.83;;
3781;SDS011;6881;49.962;7.718;2023-03-30T03:24:28;5.40;;;2.43;;
3781;SDS011;6881;49.962;7.718;2023-03-30T03:26:54;4.17;;;2.30;;
3781;SDS011;6881;49.962;7.718;2023-03-30T03:29:19;3.40;;;2.00;;
3781;SDS011;6881;49.962;7.718;2023-03-30T03:31:44;3.47;;;2.10;;
3781;SDS011;6881;49.962;7.718;2023-03-30T03:34:10;3.93;;;3.20;;
3781;SDS011;6881;49.962;7.718;2023-03-30T03:36:35;6.50;;;2.80;;
3781;SDS011;6881;49.962;7.718;2023-03-30T03:39:00;5.10;;;2.70;;
3781;SDS011;6881;49.962;7.718;2023-03-30T03:41:26;4.93;;;2.03;;
3781;SDS011;6881;49.962;7.718;2023-03-30T03:43:51;2.83;;;2.23;;
3781;SDS011;6881;49.962;7.718;2023-03-30T03:46:17;7.17;;;2.70;;
3781;SDS011;6881;49.962;7.718;2023-03-30T03:48:42;5.70;;;3.00;;
3781;SDS011;6881;49.962;7.718;2023-03-30T03:51:07;5.37;;;3.53;;
3781;SDS011;6881;49.962;7.718;2023-03-30T03:53:33;12.17;;;8.47;;
3781;SDS011;6881;49.962;7.718;2023-03-30T03:55:59;8.83;;;5.60;;
3781;SDS011;6881;49.962;7.718;2023-03-30T03:58:26;5.10;;;3.00;;
3781;SDS011;6881;49.962;7.718;2023-03-30T04:00:56;5.87;;;3.17;;
3781;SDS011;6881;49.962;7.718;2023-03-30T04:03:22;6.60;;;3.90;;
3781;SDS011;6881;49.962;7.718;2023-03-30T04:05:48;7.30;;;4.10;;
3781;SDS011;6881;49.962;7.718;2023-03-30T04:08:13;7.37;;;4.43;;
3781;SDS011;6881;49.962;7.718;2023-03-30T04:10:42;9.17;;;5.77;;
3781;SDS011;6881;49.962;7.718;2023-03-30T04:13:07;7.70;;;5.27;;
3781;SDS011;6881;49.962;7.718;2023-03-30T04:15:33;6.23;;;3.70;;
3781;SDS011;6881;49.962;7.718;2023-03-30T04:17:58;4.80;;;3.50;;
3781;SDS011;6881;49.962;7.718;2023-03-30T04:20:24;6.10;;;3.63;;
3781;SDS011;6881;49.962;7.718;2023-03-30T04:22:50;7.27;;;4.20;;
3781;SDS011;6881;49.962;7.718;2023-03-30T04:25:17;6.20;;;4.20;;
3781;SDS011;6881;49.962;7.718;2023-03-30T04:27:47;7.97;;;4.50;;
3781;SDS011;6881;49.962;7.718;2023-03-30T04:30:15;14.10;;;8.43;;
3781;SDS011;6881;49.962;7.718;2023-03-30T04:32:41;18.47;;;11.30;;
3781;SDS011;6881;49.962;7.718;2023-03-30T04:35:07;29.63;;;18.00;;
3781;SDS011;6881;49.962;7.718;2023-03-30T04:37:33;33.23;;;16.40;;
3781;SDS011;6881;49.962;7.718;2023-03-30T04:39:59;18.00;;;11.07;;
3781;SDS011;6881;49.962;7.718;2023-03-30T04:42:25;14.73;;;7.77;;
3781;SDS011;6881;49.962;7.718;2023-03-30T04:44:58;9.33;;;5.37;;
3781;SDS011;6881;49.962;7.718;2023-03-30T04:47:25;7.07;;;5.70;;
3781;SDS011;6881;49.962;7.718;2023-03-30T04:49:51;13.27;;;6.53;;
3781;SDS011;6881;49.962;7.718;2023-03-30T04:52:16;11.17;;;5.60;;
3781;SDS011;6881;49.962;7.718;2023-03-30T04:54:42;7.20;;;4.77;;
3781;SDS011;6881;49.962;7.718;2023-03-30T04:57:07;11.60;;;5.07;;
3781;SDS011;6881;49.962;7.718;2023-03-30T04:59:33;4.80;;;3.73;;
3781;SDS011;6881;49.962;7.718;2023-03-30T05:01:58;8.90;;;3.67;;
3781;SDS011;6881;49.962;7.718;2023-03-30T05:04:23;9.83;;;3.87;;
3781;SDS011;6881;49.962;7.718;2023-03-30T05:06:49;10.27;;;3.40;;
3781;SDS011;6881;49.962;7.718;2023-03-30T05:09:14;6.63;;;2.70;;
3781;SDS011;6881;49.962;7.718;2023-03-30T05:11:40;3.17;;;2.63;;
3781;SDS011;6881;49.962;7.718;2023-03-30T05:14:05;6.60;;;2.87;;
3781;SDS011;6881;49.962;7.718;2023-03-30T05:16:31;9.37;;;3.03;;
3781;SDS011;6881;49.962;7.718;2023-03-30T05:18:56;6.00;;;2.87;;
3781;SDS011;6881;49.962;7.718;2023-03-30T05:21:22;3.50;;;3.20;;
3781;SDS011;6881;49.962;7.718;2023-03-30T05:23:47;5.87;;;3.27;;
3781;SDS011;6881;49.962;7.718;2023-03-30T05:26:13;5.23;;;2.90;;
3781;SDS011;6881;49.962;7.718;2023-03-30T05:28:38;3.93;;;2.73;;
3781;SDS011;6881;49.962;7.718;2023-03-30T05:31:04;5.90;;;2.60;;
3781;SDS011;6881;49.962;7.718;2023-03-30T05:33:30;4.17;;;2.70;;
3781;SDS011;6881;49.962;7.718;2023-03-30T05:35:55;6.87;;;2.43;;
3781;SDS011;6881;49.962;7.718;2023-03-30T05:38:20;6.00;;;2.80;;
3781;SDS011;6881;49.962;7.718;2023-03-30T05:40:50;6.80;;;3.17;;
3781;SDS011;6881;49.962;7.718;2023-03-30T05:43:16;8.50;;;3.47;;
3781;SDS011;6881;49.962;7.718;2023-03-30T05:45:42;5.17;;;2.80;;
3781;SDS011;6881;49.962;7.718;2023-03-30T05:48:08;6.10;;;3.00;;
3781;SDS011;6881;49.962;7.718;2023-03-30T05:50:33;4.90;;;2.57;;
3781;SDS011;6881;49.962;7.718;2023-03-30T05:52:59;6.13;;;3.37;;
3781;SDS011;6881;49.962;7.718;2023-03-30T05:55:24;6.07;;;3.07;;
3781;SDS011;6881;49.962;7.718;2023-03-30T05:57:50;8.87;;;3.30;;
3781;SDS011;6881;49.962;7.718;2023-03-30T06:00:15;9.80;;;3.47;;
3781;SDS011;6881;49.962;7.718;2023-03-30T06:02:41;9.80;;;3.73;;
3781;SDS011;6881;49.962;7.718;2023-03-30T06:05:06;3.73;;;3.13;;
3781;SDS011;6881;49.962;7.718;2023-03-30T06:07:32;6.60;;;3.20;;
3781;SDS011;6881;49.962;7.718;2023-03-30T06:09:58;6.73;;;3.50;;
3781;SDS011;6881;49.962;7.718;2023-03-30T06:12:25;7.40;;;4.73;;
3781;SDS011;6881;49.962;7.718;2023-03-30T06:14:50;5.17;;;3.80;;
3781;SDS011;6881;49.962;7.718;2023-03-30T06:17:16;4.47;;;3.47;;
3781;SDS011;6881;49.962;7.718;2023-03-30T06:19:41;5.87;;;3.80;;
3781;SDS011;6881;49.962;7.718;2023-03-30T06:22:07;6.17;;;3.63;;
3781;SDS011;6881;49.962;7.718;2023-03-30T06:24:33;5.00;;;4.23;;
3781;SDS011;6881;49.962;7.718;2023-03-30T06:26:58;10.90;;;4.10;;
3781;SDS011;6881;49.962;7.718;2023-03-30T06:29:25;9.57;;;4.67;;
3781;SDS011;6881;49.962;7.718;2023-03-30T06:31:51;3.83;;;3.53;;
3781;SDS011;6881;49.962;7.718;2023-03-30T06:34:17;9.60;;;4.70;;
3781;SDS011;6881;49.962;7.718;2023-03-30T06:36:42;7.57;;;4.30;;
3781;SDS011;6881;49.962;7.718;2023-03-30T06:39:10;8.40;;;4.50;;
3781;SDS011;6881;49.962;7.718;2023-03-30T06:41:35;8.40;;;4.80;;
3781;SDS011;6881;49.962;7.718;2023-03-30T06:44:01;7.63;;;4.07;;
3781;SDS011;6881;49.962;7.718;2023-03-30T06:46:26;7.33;;;3.70;;
3781;SDS011;6881;49.962;7.718;2023-03-30T06:48:52;9.30;;;4.20;;
3781;SDS011;6881;49.962;7.718;2023-03-30T06:51:17;6.60;;;4.17;;
3781;SDS011;6881;49.962;7.718;2023-03-30T06:53:43;6.97;;;4.33;;
3781;SDS011;6881;49.962;7.718;2023-03-30T06:56:09;5.10;;;3.50;;
3781;SDS011;6881;49.962;7.718;2023-03-30T06:58:35;6.03;;;3.87;;
3781;SDS011;6881;49.962;7.718;2023-03-30T07:01:07;5.40;;;3.83;;
3781;SDS011;6881;49.962;7.718;2023-03-30T07:03:34;10.93;;;4.10;;
3781;SDS011;6881;49.962;7.718;2023-03-30T07:05:59;5.77;;;4.13;;
3781;SDS011;6881;49.962;7.718;2023-03-30T07:08:25;6.80;;;4.07;;
3781;SDS011;6881;49.962;7.718;2023-03-30T07:10:50;3.30;;;2.90;;
3781;SDS011;6881;49.962;7.718;2023-03-30T07:13:15;4.43;;;3.57;;
3781;SDS011;6881;49.962;7.718;2023-03-30T07:15:41;6.10;;;4.03;;
3781;SDS011;6881;49.962;7.718;2023-03-30T07:18:06;5.70;;;4.00;;
3781;SDS011;6881;49.962;7.718;2023-03-30T07:20:32;3.67;;;3.20;;
3781;SDS011;6881;49.962;7.718;2023-03-30T07:22:57;10.73;;;4.07;;
3781;SDS011;6881;49.962;7.718;2023-03-30T07:25:23;7.30;;;4.67;;
3781;SDS011;6881;49.962;7.718;2023-03-30T07:27:48;6.90;;;4.20;;
3781;SDS011;6881;49.962;7.718;2023-03-30T07:30:13;5.40;;;3.00;;
3781;SDS011;6881;49.962;7.718;2023-03-30T07:32:39;9.50;;;4.00;;
3781;SDS011;6881;49.962;7.718;2023-03-30T07:35:05;6.23;;;3.30;;
3781;SDS011;6881;49.962;7.718;2023-03-30T07:37:30;4.67;;;4.27;;
3781;SDS011;6881;49.962;7.718;2023-03-30T07:39:56;9.00;;;3.37;;
3781;SDS011;6881;49.962;7.718;2023-03-30T07:42:21;3.97;;;3.57;;
3781;SDS011;6881;49.962;7.718;2023-03-30T07:44:47;5.23;;;3.27;;
3781;SDS011;6881;49.962;7.718;2023-03-30T07:47:12;4.70;;;3.70;;
3781;SDS011;6881;49.962;7.718;2023-03-30T07:49:38;5.47;;;3.37;;
3781;SDS011;6881;49.962;7.718;2023-03-30T07:52:03;6.37;;;4.13;;
3781;SDS011;6881;49.962;7.718;2023-03-30T07:54:29;6.43;;;3.70;;
3781;SDS011;6881;49.962;7.718;2023-03-30T07:56:54;4.67;;;3.37;;
3781;SDS011;6881;49.962;7.718;2023-03-30T07:59:20;4.67;;;4.00;;
3781;SDS011;6881;49.962;7.718;2023-03-30T08:01:47;5.03;;;3.90;;
3781;SDS011;6881;49.962;7.718;2023-03-30T08:04:16;10.27;;;4.40;;
3781;SDS011;6881;49.962;7.718;2023-03-30T08:06:42;7.40;;;4.20;;
3781;SDS011;6881;49.962;7.718;2023-03-30T08:09:08;4.90;;;3.60;;
3781;SDS011;6881;49.962;7.718;2023-03-30T08:11:34;6.90;;;4.30;;
3781;SDS011;6881;49.962;7.718;2023-03-30T08:14:00;4.53;;;3.80;;
3781;SDS011;6881;49.962;7.718;2023-03-30T08:16:30;6.20;;;3.60;;
3781;SDS011;6881;49.962;7.718;2023-03-30T08:18:55;5.00;;;3.80;;
3781;SDS011;6881;49.962;7.718;2023-03-30T08:21:21;3.70;;;3.40;;
3781;SDS011;6881;49.962;7.718;2023-03-30T08:23:49;3.57;;;3.13;;
3781;SDS011;6881;49.962;7.718;2023-03-30T08:26:15;3.77;;;3.37;;
3781;SDS011;6881;49.962;7.718;2023-03-30T08:28:40;3.50;;;2.77;;
3781;SDS011;6881;49.962;7.718;2023-03-30T08:31:06;3.03;;;2.70;;
3781;SDS011;6881;49.962;7.718;2023-03-30T08:33:32;4.33;;;3.50;;
3781;SDS011;6881;49.962;7.718;2023-03-30T08:35:58;4.33;;;2.93;;
3781;SDS011;6881;49.962;7.718;2023-03-30T08:38:24;4.50;;;2.43;;
3781;SDS011;6881;49.962;7.718;2023-03-30T08:40:50;4.50;;;2.60;;
3781;SDS011;6881;49.962;7.718;2023-03-30T08:46:00;4.60;;;2.40;;
3781;SDS011;6881;49.962;7.718;2023-03-30T08:48:27;3.50;;;2.63;;
3781;SDS011;6881;49.962;7.718;2023-03-30T08:50:58;2.63;;;2.40;;
3781;SDS011;6881;49.962;7.718;2023-03-30T08:53:26;3.93;;;2.37;;
3781;SDS011;6881;49.962;7.718;2023-03-30T08:55:57;8.60;;;3.53;;
3781;SDS011;6881;49.962;7.718;2023-03-30T09:01:22;4.40;;;3.13;;
3781;SDS011;6881;49.962;7.718;2023-03-30T09:06:39;4.80;;;2.77;;
3781;SDS011;6881;49.962;7.718;2023-03-30T09:09:10;5.13;;;2.63;;
3781;SDS011;6881;49.962;7.718;2023-03-30T09:11:38;4.17;;;2.90;;
3781;SDS011;6881;49.962;7.718;2023-03-30T09:14:04;5.43;;;3.00;;
3781;SDS011;6881;49.962;7.718;2023-03-30T09:16:37;5.27;;;2.70;;
3781;SDS011;6881;49.962;7.718;2023-03-30T09:19:11;7.77;;;2.37;;
3781;SDS011;6881;49.962;7.718;2023-03-30T09:21:42;5.43;;;2.87;;
3781;SDS011;6881;49.962;7.718;2023-03-30T09:24:10;3.80;;;2.33;;
3781;SDS011;6881;49.962;7.718;2023-03-30T09:29:18;2.97;;;2.50;;
3781;SDS011;6881;49.962;7.718;2023-03-30T09:37:29;5.70;;;3.10;;
3781;SDS011;6881;49.962;7.718;2023-03-30T09:39:55;4.80;;;2.03;;
3781;SDS011;6881;49.962;7.718;2023-03-30T09:45:03;2.90;;;2.00;;
3781;SDS011;6881;49.962;7.718;2023-03-30T09:47:46;3.23;;;1.93;;
3781;SDS011;6881;49.962;7.718;2023-03-30T09:50:21;2.73;;;2.00;;
3781;SDS011;6881;49.962;7.718;2023-03-30T09:52:59;3.07;;;2.57;;
3781;SDS011;6881;49.962;7.718;2023-03-30T09:55:33;12.33;;;2.80;;
3781;SDS011;6881;49.962;7.718;2023-03-30T09:58:19;3.33;;;2.20;;
3781;SDS011;6881;49.962;7.718;2023-03-30T10:04:10;6.67;;;2.23;;
3781;SDS011;6881;49.962;7.718;2023-03-30T10:06:54;2.60;;;2.10;;
3781;SDS011;6881;49.962;7.718;2023-03-30T10:09:20;3.27;;;1.80;;
3781;SDS011;6881;49.962;7.718;2023-03-30T10:11:48;2.33;;;1.30;;
3781;SDS011;6881;49.962;7.718;2023-03-30T10:14:19;7.87;;;2.17;;
3781;SDS011;6881;49.962;7.718;2023-03-30T10:16:47;5.13;;;2.47;;
3781;SDS011;6881;49.962;7.718;2023-03-30T10:19:17;8.93;;;4.27;;
3781;SDS011;6881;49.962;7.718;2023-03-30T10:21:44;4.37;;;3.30;;
3781;SDS011;6881;49.962;7.718;2023-03-30T10:26:38;4.43;;;2.77;;
3781;SDS011;6881;49.962;7.718;2023-03-30T10:29:04;5.43;;;3.07;;
3781;SDS011;6881;49.962;7.718;2023-03-30T10:31:35;2.50;;;1.87;;
3781;SDS011;6881;49.962;7.718;2023-03-30T10:34:01;4.50;;;2.40;;
3781;SDS011;6881;49.962;7.718;2023-03-30T10:36:30;4.47;;;2.07;;
3781;SDS011;6881;49.962;7.718;2023-03-30T10:39:05;4.10;;;1.70;;
3781;SDS011;6881;49.962;7.718;2023-03-30T10:42:13;3.33;;;1.90;;
3781;SDS011;6881;49.962;7.718;2023-03-30T10:44:41;2.00;;;1.23;;
3781;SDS011;6881;49.962;7.718;2023-03-30T11:03:35;3.73;;;1.87;;
3781;SDS011;6881;49.962;7.718;2023-03-30T11:06:04;3.00;;;1.10;;
3781;SDS011;6881;49.962;7.718;2023-03-30T11:08:34;5.50;;;2.30;;
3781;SDS011;6881;49.962;7.718;2023-03-30T11:11:01;3.23;;;1.60;;
3781;SDS011;6881;49.962;7.718;2023-03-30T11:13:47;2.70;;;1.53;;
3781;SDS011;6881;49.962;7.718;2023-03-30T11:16:17;2.67;;;1.57;;
3781;SDS011;6881;49.962;7.718;2023-03-30T11:18:47;3.67;;;1.90;;
3781;SDS011;6881;49.962;7.718;2023-03-30T11:21:20;2.60;;;1.30;;
3781;SDS011;6881;49.962;7.718;2023-03-30T11:23:55;2.23;;;1.63;;
3781;SDS011;6881;49.962;7.718;2023-03-30T11:26:34;5.30;;;1.53;;
3781;SDS011;6881;49.962;7.718;2023-03-30T11:36:47;3.70;;;1.50;;
3781;SDS011;6881;49.962;7.718;2023-03-30T11:39:18;2.13;;;1.97;;
3781;SDS011;6881;49.962;7.718;2023-03-30T11:41:49;2.10;;;1.30;;
3781;SDS011;6881;49.962;7.718;2023-03-30T11:44:26;3.27;;;2.37;;
3781;SDS011;6881;49.962;7.718;2023-03-30T11:54:53;3.57;;;2.40;;
3781;SDS011;6881;49.962;7.718;2023-03-30T12:02:52;3.67;;;1.60;;
3781;SDS011;6881;49.962;7.718;2023-03-30T12:10:17;4.93;;;1.50;;
3781;SDS011;6881;49.962;7.718;2023-03-30T12:12:46;3.43;;;1.40;;
3781;SDS011;6881;49.962;7.718;2023-03-30T12:15:30;4.00;;;1.43;;
3781;SDS011;6881;49.962;7.718;2023-03-30T12:20:42;1.60;;;1.50;;
3781;SDS011;6881;49.962;7.718;2023-03-30T12:31:19;4.03;;;1.50;;
3781;SDS011;6881;49.962;7.718;2023-03-30T12:33:48;2.00;;;1.47;;
3781;SDS011;6881;49.962;7.718;2023-03-30T12:36:23;1.80;;;1.10;;
3781;SDS011;6881;49.962;7.718;2023-03-30T12:39:17;4.70;;;1.33;;
3781;SDS011;6881;49.962;7.718;2023-03-30T12:41:50;2.53;;;0.97;;
3781;SDS011;6881;49.962;7.718;2023-03-30T12:47:36;4.47;;;1.60;;
3781;SDS011;6881;49.962;7.718;2023-03-30T13:05:48;2.77;;;1.20;;
3781;SDS011;6881;49.962;7.718;2023-03-30T13:11:04;4.23;;;1.50;;
3781;SDS011;6881;49.962;7.718;2023-03-30T13:24:39;4.37;;;2.80;;
3781;SDS011;6881;49.962;7.718;2023-03-30T13:29:42;4.90;;;1.67;;
3781;SDS011;6881;49.962;7.718;2023-03-30T13:32:16;5.67;;;3.27;;
3781;SDS011;6881;49.962;7.718;2023-03-30T13:35:25;4.03;;;2.87;;
3781;SDS011;6881;49.962;7.718;2023-03-30T13:46:05;3.20;;;1.67;;
3781;SDS011;6881;49.962;7.718;2023-03-30T13:48:42;4.57;;;1.20;;
3781;SDS011;6881;49.962;7.718;2023-03-30T13:51:24;2.93;;;1.50;;
3781;SDS011;6881;49.962;7.718;2023-03-30T13:53:56;6.27;;;2.03;;
3781;SDS011;6881;49.962;7.718;2023-03-30T13:56:23;3.00;;;1.07;;
3781;SDS011;6881;49.962;7.718;2023-03-30T13:58:52;2.40;;;1.70;;
3781;SDS011;6881;49.962;7.718;2023-03-30T14:01:24;4.43;;;1.47;;
3781;SDS011;6881;49.962;7.718;2023-03-30T14:03:52;3.13;;;1.20;;
3781;SDS011;6881;49.962;7.718;2023-03-30T14:06:21;3.00;;;1.23;;
3781;SDS011;6881;49.962;7.718;2023-03-30T14:08:57;1.40;;;1.10;;
3781;SDS011;6881;49.962;7.718;2023-03-30T14:11:38;7.63;;;2.43;;
3781;SDS011;6881;49.962;7.718;2023-03-30T14:14:15;4.90;;;2.07;;
3781;SDS011;6881;49.962;7.718;2023-03-30T14:16:41;1.90;;;1.33;;
3781;SDS011;6881;49.962;7.718;2023-03-30T14:19:09;3.33;;;1.77;;
3781;SDS011;6881;49.962;7.718;2023-03-30T14:21:37;3.57;;;1.50;;
3781;SDS011;6881;49.962;7.718;2023-03-30T14:24:07;3.53;;;1.33;;
3781;SDS011;6881;49.962;7.718;2023-03-30T14:26:37;4.60;;;2.20;;
3781;SDS011;6881;49.962;7.718;2023-03-30T14:29:05;3.30;;;1.50;;
3781;SDS011;6881;49.962;7.718;2023-03-30T14:31:37;3.03;;;2.00;;
3781;SDS011;6881;49.962;7.718;2023-03-30T14:34:20;7.13;;;3.20;;
3781;SDS011;6881;49.962;7.718;2023-03-30T14:36:53;5.27;;;3.23;;
3781;SDS011;6881;49.962;7.718;2023-03-30T14:39:20;8.00;;;4.67;;
3781;SDS011;6881;49.962;7.718;2023-03-30T14:41:47;6.43;;;2.80;;
3781;SDS011;6881;49.962;7.718;2023-03-30T14:44:13;5.10;;;1.63;;
3781;SDS011;6881;49.962;7.718;2023-03-30T14:46:41;6.17;;;1.87;;
3781;SDS011;6881;49.962;7.718;2023-03-30T14:49:26;2.13;;;1.30;;
3781;SDS011;6881;49.962;7.718;2023-03-30T14:52:15;6.40;;;1.60;;
3781;SDS011;6881;49.962;7.718;2023-03-30T14:54:40;4.13;;;1.40;;
3781;SDS011;6881;49.962;7.718;2023-03-30T14:57:06;3.30;;;1.60;;
3781;SDS011;6881;49.962;7.718;2023-03-30T14:59:32;5.67;;;1.97;;
3781;SDS011;6881;49.962;7.718;2023-03-30T15:02:00;4.73;;;2.10;;
3781;SDS011;6881;49.962;7.718;2023-03-30T15:04:28;2.50;;;1.60;;
3781;SDS011;6881;49.962;7.718;2023-03-30T15:06:56;4.27;;;2.17;;
3781;SDS011;6881;49.962;7.718;2023-03-30T15:09:22;4.57;;;1.77;;
3781;SDS011;6881;49.962;7.718;2023-03-30T15:11:54;6.57;;;2.03;;
3781;SDS011;6881;49.962;7.718;2023-03-30T15:14:21;3.37;;;1.73;;
3781;SDS011;6881;49.962;7.718;2023-03-30T15:16:48;3.10;;;1.50;;
3781;SDS011;6881;49.962;7.718;2023-03-30T15:21:57;2.47;;;1.00;;
3781;SDS011;6881;49.962;7.718;2023-03-30T15:24:25;3.63;;;1.40;;
3781;SDS011;6881;49.962;7.718;2023-03-30T15:26:53;4.00;;;2.40;;
3781;SDS011;6881;49.962;7.718;2023-03-30T15:29:20;4.03;;;1.77;;
3781;SDS011;6881;49.962;7.718;2023-03-30T15:31:48;2.97;;;2.77;;
3781;SDS011;6881;49.962;7.718;2023-03-30T15:34:23;2.27;;;1.40;;
3781;SDS011;6881;49.962;7.718;2023-03-30T15:36:52;3.90;;;1.37;;
3781;SDS011;6881;49.962;7.718;2023-03-30T15:39:19;5.20;;;1.57;;
3781;SDS011;6881;49.962;7.718;2023-03-30T15:44:20;2.43;;;2.00;;
3781;SDS011;6881;49.962;7.718;2023-03-30T15:46:49;3.00;;;1.43;;
3781;SDS011;6881;49.962;7.718;2023-03-30T15:49:17;2.00;;;1.00;;
3781;SDS011;6881;49.962;7.718;2023-03-30T15:51:47;3.57;;;2.50;;
3781;SDS011;6881;49.962;7.718;2023-03-30T15:54:17;2.63;;;1.40;;
3781;SDS011;6881;49.962;7.718;2023-03-30T15:59:42;2.10;;;1.20;;
3781;SDS011;6881;49.962;7.718;2023-03-30T16:02:20;1.70;;;1.33;;
3781;SDS011;6881;49.962;7.718;2023-03-30T16:04:47;3.63;;;1.80;;
3781;SDS011;6881;49.962;7.718;2023-03-30T16:07:21;3.60;;;2.57;;
3781;SDS011;6881;49.962;7.718;2023-03-30T16:09:47;4.00;;;2.27;;
3781;SDS011;6881;49.962;7.718;2023-03-30T16:12:13;4.80;;;1.90;;
3781;SDS011;6881;49.962;7.718;2023-03-30T16:14:39;3.10;;;1.70;;
3781;SDS011;6881;49.962;7.718;2023-03-30T16:17:05;4.03;;;1.70;;
3781;SDS011;6881;49.962;7.718;2023-03-30T16:19:30;7.10;;;2.00;;
3781;SDS011;6881;49.962;7.718;2023-03-30T16:21:56;3.00;;;2.10;;
3781;SDS011;6881;49.962;7.718;2023-03-30T16:24:21;4.20;;;3.37;;
3781;SDS011;6881;49.962;7.718;2023-03-30T16:26:46;5.50;;;2.77;;
3781;SDS011;6881;49.962;7.718;2023-03-30T16:29:22;4.47;;;3.03;;
3781;SDS011;6881;49.962;7.718;2023-03-30T16:31:48;5.77;;;2.53;;
3781;SDS011;6881;49.962;7.718;2023-03-30T16:34:14;9.10;;;3.40;;
3781;SDS011;6881;49.962;7.718;2023-03-30T16:36:39;8.47;;;3.23;;
3781;SDS011;6881;49.962;7.718;2023-03-30T16:39:25;3.43;;;2.17;;
3781;SDS011;6881;49.962;7.718;2023-03-30T16:41:51;5.63;;;2.10;;
3781;SDS011;6881;49.962;7.718;2023-03-30T16:44:18;5.83;;;2.47;;
3781;SDS011;6881;49.962;7.718;2023-03-30T16:46:44;4.90;;;2.30;;
3781;SDS011;6881;49.962;7.718;2023-03-30T16:49:14;6.93;;;1.50;;
3781;SDS011;6881;49.962;7.718;2023-03-30T16:51:48;1.77;;;1.40;;
3781;SDS011;6881;49.962;7.718;2023-03-30T16:54:14;6.43;;;2.47;;
3781;SDS011;6881;49.962;7.718;2023-03-30T16:56:40;4.00;;;1.70;;
3781;SDS011;6881;49.962;7.718;2023-03-30T16:59:09;10.63;;;5.00;;
3781;SDS011;6881;49.962;7.718;2023-03-30T17:01:41;12.07;;;2.93;;
3781;SDS011;6881;49.962;7.718;2023-03-30T17:04:06;7.37;;;2.40;;
3781;SDS011;6881;49.962;7.718;2023-03-30T17:06:33;10.30;;;4.40;;
3781;SDS011;6881;49.962;7.718;2023-03-30T17:08:59;11.97;;;5.17;;
3781;SDS011;6881;49.962;7.718;2023-03-30T17:11:24;9.87;;;4.00;;
3781;SDS011;6881;49.962;7.718;2023-03-30T17:13:50;6.03;;;3.67;;
3781;SDS011;6881;49.962;7.718;2023-03-30T17:16:15;5.80;;;3.10;;
3781;SDS011;6881;49.962;7.718;2023-03-30T17:18:40;10.07;;;2.90;;
3781;SDS011;6881;49.962;7.718;2023-03-30T17:21:06;7.80;;;4.00;;
3781;SDS011;6881;49.962;7.718;2023-03-30T17:23:33;7.97;;;3.63;;
3781;SDS011;6881;49.962;7.718;2023-03-30T17:25:59;4.50;;;3.30;;
3781;SDS011;6881;49.962;7.718;2023-03-30T17:28:30;6.20;;;2.53;;
3781;SDS011;6881;49.962;7.718;2023-03-30T17:30:58;6.70;;;3.40;;
3781;SDS011;6881;49.962;7.718;2023-03-30T17:33:24;50.73;;;36.30;;
3781;SDS011;6881;49.962;7.718;2023-03-30T17:36:11;35.87;;;28.10;;
3781;SDS011;6881;49.962;7.718;2023-03-30T17:38:43;19.43;;;11.87;;
3781;SDS011;6881;49.962;7.718;2023-03-30T17:41:09;20.10;;;10.70;;
3781;SDS011;6881;49.962;7.718;2023-03-30T17:43:36;8.23;;;5.50;;
3781;SDS011;6881;49.962;7.718;2023-03-30T17:46:02;11.10;;;5.27;;
3781;SDS011;6881;49.962;7.718;2023-03-30T17:48:27;11.70;;;2.80;;
3781;SDS011;6881;49.962;7.718;2023-03-30T17:50:52;3.87;;;1.80;;
3781;SDS011;6881;49.962;7.718;2023-03-30T17:53:19;2.10;;;1.83;;
3781;SDS011;6881;49.962;7.718;2023-03-30T17:55:50;3.40;;;2.40;;
3781;SDS011;6881;49.962;7.718;2023-03-30T18:00:45;5.20;;;2.13;;
3781;SDS011;6881;49.962;7.718;2023-03-30T18:03:11;7.00;;;3.60;;
3781;SDS011;6881;49.962;7.718;2023-03-30T18:05:40;7.13;;;1.70;;
3781;SDS011;6881;49.962;7.718;2023-03-30T18:08:05;4.43;;;1.93;;
3781;SDS011;6881;49.962;7.718;2023-03-30T18:10:36;5.60;;;2.70;;
3781;SDS011;6881;49.962;7.718;2023-03-30T18:13:02;6.60;;;2.73;;
3781;SDS011;6881;49.962;7.718;2023-03-30T18:15:29;11.77;;;7.60;;
3781;SDS011;6881;49.962;7.718;2023-03-30T18:17:55;13.40;;;7.50;;
3781;SDS011;6881;49.962;7.718;2023-03-30T18:20:31;5.67;;;4.10;;
3781;SDS011;6881;49.962;7.718;2023-03-30T18:22:58;7.20;;;3.70;;
3781;SDS011;6881;49.962;7.718;2023-03-30T18:25:24;10.83;;;4.20;;